KCNW

Tstc Waco Airport

Waco, Texas, USA
METAR KCNW 201955Z 30004KT 10SM SCT055 36/20 A2997
Observed Flight Rules
Aug-20 @ 19:55 UTC (35 minutes ago) Visual Flight Rules
Wind Visibility Clouds
300° at 4 knots 10 miles
  • Scattered at 5,500' AGL
Temperatures Readings
Current 36°C / 97°F
Dewpoint 20°C / 68°F
Humidity 39%
Altimeter 29.97" Hg
Pressure 1015 hPa
Elevation 156
METAR KCNW 201955Z 30004KT 10SM SCT055 36/20 A2997
Observed Flight Rules
Aug-20 @ 19:55 UTC
(35 minutes ago)
VFR
Wind Visibility
300° at 4 knots 10 miles
Clouds
  • Scattered at 5,500' AGL
Temperature Dewpoint
36°C / 97°F 20°C / 68°F
Humidity Altimeter Pressure
39% 29.97" Hg 1015 hPa